Time;durP1;ratioP1;P1;durP2;ratioP2;P2;SDS_P1;SDS_P2;PMS_P1;PMS_P2;Temp;Humidity;BMP_temperature;BMP_pressure;BME280_temperature;BME280_humidity;BME280_pressure;Samples;Min_cycle;Max_cycle;Signal;HPM_P1;HPM_P2
2024/01/04 00:01:21;;;;;;;75.35;29.95;;;;;;;4.67;89.42;99108.25;3144339;28;20064;-68
2024/01/04 00:02:52;;;;;;;72.72;28.40;;;;;;;4.66;89.41;99106.59;3144555;28;20052;-69
2024/01/04 00:04:23;;;;;;;69.20;28.27;;;;;;;4.58;89.35;99114.56;3144665;28;20060;-68
2024/01/04 00:05:54;;;;;;;69.38;27.20;;;;;;;4.52;89.51;99117.34;3144279;28;20113;-69
2024/01/04 00:07:26;;;;;;;70.15;28.80;;;;;;;4.51;89.66;99124.22;3144500;28;20409;-66
2024/01/04 00:08:57;;;;;;;69.80;28.60;;;;;;;4.52;89.69;99119.91;3144670;28;20044;-67
2024/01/04 00:10:28;;;;;;;70.60;29.92;;;;;;;4.53;89.51;99117.31;3144461;28;20059;-68
2024/01/04 00:12:01;;;;;;;74.05;29.48;;;;;;;4.55;89.65;99106.91;3144432;28;20147;-69
2024/01/04 00:13:33;;;;;;;63.70;26.67;;;;;;;4.47;89.48;99106.34;3144634;28;20056;-68
2024/01/04 00:15:04;;;;;;;64.82;27.40;;;;;;;4.42;89.84;99100.47;3144277;28;20044;-68
2024/01/04 00:16:36;;;;;;;61.55;27.67;;;;;;;4.41;89.67;99109.09;3144527;28;20160;-69
2024/01/04 00:18:07;;;;;;;65.60;26.58;;;;;;;4.42;89.83;99108.22;3143936;28;20067;-69
2024/01/04 00:19:39;;;;;;;63.33;27.58;;;;;;;4.42;89.84;99110.78;3144843;28;20048;-69
2024/01/04 00:21:12;;;;;;;73.40;27.27;;;;;;;4.44;89.81;99103.88;3144209;28;20056;-69
2024/01/04 00:22:44;;;;;;;60.03;26.45;;;;;;;4.42;89.90;99100.47;3144570;28;20044;-69
2024/01/04 00:24:14;;;;;;;72.40;28.45;;;;;;;4.40;89.89;99092.78;3144235;28;20064;-68
2024/01/04 00:25:46;;;;;;;63.22;27.25;;;;;;;4.43;89.91;99109.88;3144554;28;20520;-69
2024/01/04 00:27:18;;;;;;;68.20;28.45;;;;;;;4.44;89.89;99106.44;3144230;28;20051;-69
2024/01/04 00:28:50;;;;;;;69.32;28.48;;;;;;;4.42;89.95;99097.91;3144107;28;20076;-68
2024/01/04 00:30:21;;;;;;;65.22;27.13;;;;;;;4.37;90.05;99103.19;3144194;28;20059;-69
2024/01/04 00:31:54;;;;;;;68.75;27.95;;;;;;;4.36;90.19;99108.41;3144567;28;20370;-68
2024/01/04 00:33:25;;;;;;;59.35;26.05;;;;;;;4.30;90.54;99102.53;3144521;28;20138;-68
2024/01/04 00:34:57;;;;;;;66.07;27.63;;;;;;;4.29;90.57;99100.88;3142941;28;20084;-68
2024/01/04 00:36:27;;;;;;;66.75;28.27;;;;;;;4.28;90.77;99103.47;3144340;28;20497;-68
2024/01/04 00:38:00;;;;;;;61.72;26.90;;;;;;;4.26;90.84;99102.66;3146328;28;20056;-68
2024/01/04 00:39:31;;;;;;;63.90;27.33;;;;;;;4.26;90.80;99095.81;3147246;28;20072;-67
2024/01/04 00:41:03;;;;;;;59.85;27.02;;;;;;;4.26;90.71;99092.34;3146539;28;20051;-68
2024/01/04 00:42:36;;;;;;;61.00;26.65;;;;;;;4.22;90.85;99107.06;3146697;28;20049;-68
2024/01/04 00:44:07;;;;;;;71.35;27.85;;;;;;;4.21;90.86;99120.03;3145743;28;20041;-68
2024/01/04 00:45:39;;;;;;;59.28;26.95;;;;;;;4.22;91.04;99111.41;3146746;28;20814;-68
2024/01/04 00:47:09;;;;;;;61.25;25.42;;;;;;;4.19;90.92;99099.44;3146722;28;20071;-67
2024/01/04 00:48:41;;;;;;;55.95;25.63;;;;;;;4.10;90.78;99089.41;3146581;28;20045;-67
2024/01/04 00:50:12;;;;;;;56.03;25.05;;;;;;;4.00;91.23;99096.59;3145433;28;20049;-67
2024/01/04 00:51:44;;;;;;;56.88;25.63;;;;;;;3.94;91.42;99101.91;3146562;28;20565;-67
2024/01/04 00:53:15;;;;;;;63.95;27.33;;;;;;;3.94;91.71;99101.09;3146978;28;20048;-66
2024/01/04 00:54:46;;;;;;;57.47;26.67;;;;;;;3.95;91.82;99102.75;3146049;28;20056;-69
2024/01/04 00:56:17;;;;;;;64.00;27.05;;;;;;;3.92;91.96;99087.41;3146656;28;20068;-77
2024/01/04 00:57:50;;;;;;;64.93;27.15;;;;;;;3.94;92.05;99094.19;3147097;28;20064;-77
2024/01/04 00:59:22;;;;;;;59.13;25.80;;;;;;;3.92;92.40;99101.13;3146441;28;20044;-77
2024/01/04 01:00:54;;;;;;;64.40;27.70;;;;;;;3.87;92.46;99090.09;3146621;28;20113;-76
2024/01/04 01:02:24;;;;;;;66.10;27.63;;;;;;;3.94;92.35;99121.69;3146696;28;20445;-76
2024/01/04 01:03:57;;;;;;;63.92;27.95;;;;;;;3.93;92.50;99109.69;3146389;28;20053;-77
2024/01/04 01:05:28;;;;;;;66.15;27.23;;;;;;;3.96;92.47;99107.00;3146521;28;20176;-78
2024/01/04 01:07:00;;;;;;;66.10;27.00;;;;;;;3.98;92.33;99126.69;3146814;28;20048;-78
2024/01/04 01:08:30;;;;;;;70.25;27.25;;;;;;;3.99;92.42;99132.69;3146507;28;20052;-76
2024/01/04 01:10:03;;;;;;;64.75;26.42;;;;;;;4.00;92.59;99134.38;3146698;28;20048;-73
2024/01/04 01:11:35;;;;;;;66.45;28.75;;;;;;;4.01;92.57;99129.19;3146690;28;20063;-74
2024/01/04 01:13:07;;;;;;;63.65;28.08;;;;;;;4.04;92.62;99120.53;3146251;28;20060;-74
2024/01/04 01:14:39;;;;;;;66.35;28.15;;;;;;;4.05;92.70;99114.47;3146296;28;20102;-74
2024/01/04 01:16:11;;;;;;;71.65;29.15;;;;;;;4.06;92.43;99116.19;3146270;28;20041;-77
2024/01/04 01:17:43;;;;;;;65.68;28.25;;;;;;;4.06;92.49;99101.56;3146350;28;20057;-77
2024/01/04 01:19:14;;;;;;;68.45;28.45;;;;;;;4.08;92.47;99110.09;3146782;28;20044;-77
2024/01/04 01:20:46;;;;;;;68.30;28.92;;;;;;;4.06;92.32;99103.28;3146420;28;20063;-78
2024/01/04 01:22:17;;;;;;;67.78;29.85;;;;;;;4.06;92.40;99109.28;3146994;28;20071;-79
2024/01/04 01:23:48;;;;;;;72.32;30.88;;;;;;;4.04;92.38;99105.91;3147147;28;20448;-81
2024/01/04 01:25:19;;;;;;;74.30;31.40;;;;;;;4.07;92.43;99107.53;3147503;28;20044;-77
2024/01/04 01:26:51;;;;;;;80.30;31.08;;;;;;;4.03;92.46;99103.38;3147264;28;20469;-77
2024/01/04 01:28:23;;;;;;;75.25;31.67;;;;;;;4.05;92.72;99106.75;3146191;28;20048;-73
2024/01/04 01:29:55;;;;;;;82.40;31.20;;;;;;;4.04;92.71;99105.91;3146016;28;20504;-73
2024/01/04 01:31:27;;;;;;;83.40;33.40;;;;;;;4.04;92.76;99092.19;3146365;28;20540;-73
2024/01/04 01:32:58;;;;;;;76.25;32.05;;;;;;;4.03;92.77;99098.22;3146229;28;20044;-73
2024/01/04 01:34:29;;;;;;;81.25;33.28;;;;;;;4.01;92.95;99093.09;3145937;28;20055;-73
2024/01/04 01:36:01;;;;;;;85.25;34.20;;;;;;;3.98;92.80;99093.19;3138985;28;20382;-72
2024/01/04 01:37:34;;;;;;;86.70;33.40;;;;;;;3.96;93.24;99086.41;3146233;28;20398;-72
2024/01/04 01:39:05;;;;;;;94.60;35.67;;;;;;;3.92;93.22;99087.41;3146257;28;20044;-73
2024/01/04 01:40:37;;;;;;;92.75;36.55;;;;;;;3.96;93.48;99104.44;3145951;28;20425;-73
2024/01/04 01:42:08;;;;;;;92.93;35.25;;;;;;;3.95;93.38;99100.19;3146137;28;20052;-72
2024/01/04 01:43:41;;;;;;;77.50;33.20;;;;;;;3.93;93.23;99100.22;3145966;28;20052;-73
2024/01/04 01:45:12;;;;;;;84.80;33.75;;;;;;;3.88;93.43;99086.66;3146124;28;20565;-73
2024/01/04 01:46:44;;;;;;;75.43;33.88;;;;;;;3.86;93.62;99098.72;3145095;28;20056;-72
2024/01/04 01:48:15;;;;;;;84.88;33.97;;;;;;;3.82;93.65;99103.13;3146286;28;20045;-72
2024/01/04 01:49:47;;;;;;;78.20;32.20;;;;;;;3.87;93.63;99116.72;3145333;28;20048;-72
2024/01/04 01:51:18;;;;;;;80.13;32.45;;;;;;;3.87;93.55;99119.28;3145947;28;20049;-73
2024/01/04 01:52:52;;;;;;;78.45;31.92;;;;;;;3.11;93.14;99005.63;3146203;28;20055;-72
2024/01/04 01:54:23;;;;;;;75.40;31.00;;;;;;;3.87;93.35;99121.88;3145761;28;20048;-73
2024/01/04 01:55:55;;;;;;;68.78;30.55;;;;;;;3.86;93.23;99114.16;3145704;28;20056;-73
2024/01/04 01:57:27;;;;;;;75.70;31.47;;;;;;;3.83;93.38;99107.38;3146217;28;20062;-73
2024/01/04 01:59:02;;;;;;;59.08;27.88;;;;;;;3.86;93.21;99103.88;3145494;28;20363;-72
2024/01/04 02:00:35;;;;;;;64.63;28.13;;;;;;;3.83;93.16;99109.09;3145664;28;20044;-72
2024/01/04 02:02:08;;;;;;;69.55;29.67;;;;;;;3.70;93.05;99094.88;3145949;28;20052;-71
2024/01/04 02:03:39;;;;;;;67.63;29.63;;;;;;;3.72;93.17;99111.97;3145529;28;20064;-71
2024/01/04 02:05:11;;;;;;;62.25;29.27;;;;;;;3.65;93.16;99101.00;3145710;28;20532;-71
2024/01/04 02:06:41;;;;;;;65.13;29.95;;;;;;;3.61;93.42;99099.44;3145787;28;20037;-73
2024/01/04 02:08:13;;;;;;;62.97;29.67;;;;;;;3.59;93.50;99096.03;3145876;28;20048;-73
2024/01/04 02:09:44;;;;;;;69.28;29.13;;;;;;;2.86;93.58;98975.41;3145773;28;20792;-71
2024/01/04 02:11:16;;;;;;;69.15;29.58;;;;;;;3.56;93.63;99088.41;3146038;28;20048;-70
2024/01/04 02:12:47;;;;;;;61.10;30.42;;;;;;;3.54;93.67;99104.78;3145865;28;20611;-74
2024/01/04 02:14:21;;;;;;;61.10;29.60;;;;;;;3.51;93.69;99084.28;3145195;28;20056;-71
2024/01/04 02:15:51;;;;;;;64.07;27.83;;;;;;;3.45;93.65;99082.69;3145963;28;20117;-74
2024/01/04 02:17:24;;;;;;;64.45;28.88;;;;;;;3.46;93.72;99083.53;3140256;28;20506;-73
2024/01/04 02:18:55;;;;;;;60.53;28.58;;;;;;;3.35;93.82;99071.81;3145175;28;20055;-75
2024/01/04 02:20:27;;;;;;;56.83;27.80;;;;;;;3.38;93.88;99076.88;3145892;28;20056;-76
2024/01/04 02:21:58;;;;;;;60.35;28.75;;;;;;;3.31;94.00;99074.50;3145502;28;20529;-76
2024/01/04 02:23:31;;;;;;;54.60;26.08;;;;;;;3.37;93.98;99088.09;3146111;28;20052;-77
2024/01/04 02:25:03;;;;;;;57.38;27.02;;;;;;;3.27;94.12;99073.75;3145205;28;20071;-77
2024/01/04 02:26:34;;;;;;;56.17;25.80;;;;;;;3.31;94.18;99084.81;3145508;28;20127;-76
2024/01/04 02:28:06;;;;;;;66.28;27.35;;;;;;;3.29;94.08;99089.19;3145801;28;20052;-76
2024/01/04 02:29:38;;;;;;;58.90;28.58;;;;;;;3.26;94.17;99084.94;3145525;28;20048;-76
2024/01/04 02:31:09;;;;;;;54.83;27.33;;;;;;;3.24;94.41;99094.44;3145624;28;20052;-75
2024/01/04 02:32:41;;;;;;;53.28;26.70;;;;;;;3.24;94.21;99102.16;3145533;28;20048;-76
2024/01/04 02:34:11;;;;;;;57.75;26.77;;;;;;;3.21;94.17;99099.66;3145443;28;20055;-75
2024/01/04 02:35:43;;;;;;;48.08;24.45;;;;;;;3.16;94.19;99110.06;3145561;28;20048;-70
2024/01/04 02:37:14;;;;;;;52.13;24.50;;;;;;;3.12;94.19;99110.19;3145643;28;20056;-74
2024/01/04 02:38:47;;;;;;;47.13;24.90;;;;;;;3.11;94.40;99113.66;3145407;28;20055;-76
2024/01/04 02:40:18;;;;;;;50.75;24.70;;;;;;;3.05;94.58;99113.81;3145679;28;20052;-76
2024/01/04 02:41:50;;;;;;;50.83;25.17;;;;;;;3.05;94.64;99113.81;3145547;28;20052;-76
2024/01/04 02:43:22;;;;;;;46.63;24.40;;;;;;;3.04;94.58;99123.25;3144552;28;20044;-77
2024/01/04 02:44:54;;;;;;;49.08;24.60;;;;;;;3.01;94.68;99122.47;3144087;28;20441;-74
2024/01/04 02:46:25;;;;;;;44.83;23.45;;;;;;;3.02;94.64;99135.31;3145384;28;20124;-65
2024/01/04 02:47:56;;;;;;;42.25;22.05;;;;;;;2.99;94.62;99139.66;3145457;28;20049;-73
2024/01/04 02:49:27;;;;;;;42.83;23.17;;;;;;;2.96;94.70;99141.47;3145004;28;20053;-73
2024/01/04 02:50:59;;;;;;;50.97;24.45;;;;;;;2.79;94.88;99110.16;3145058;28;20540;-74
2024/01/04 02:52:30;;;;;;;40.70;22.58;;;;;;;2.93;94.98;99128.66;3145277;28;20071;-68
2024/01/04 02:54:03;;;;;;;46.55;23.33;;;;;;;2.92;94.85;99132.09;3145218;28;20052;-69
2024/01/04 02:55:34;;;;;;;52.50;24.13;;;;;;;2.87;94.97;99140.81;3144923;28;20518;-75
2024/01/04 02:57:06;;;;;;;39.03;21.55;;;;;;;2.84;94.87;99134.03;3145341;28;20048;-75
2024/01/04 02:58:37;;;;;;;39.80;21.88;;;;;;;2.82;94.89;99137.53;3144845;28;20051;-75
2024/01/04 03:00:10;;;;;;;40.90;21.25;;;;;;;2.83;94.88;99139.22;3145220;28;20445;-76
2024/01/04 03:01:45;;;;;;;42.15;21.75;;;;;;;2.63;94.93;99113.97;3144861;28;20525;-76
2024/01/04 03:03:16;;;;;;;44.65;22.02;;;;;;;2.36;94.97;99074.34;3145226;28;20059;-72
2024/01/04 03:04:48;;;;;;;43.58;21.88;;;;;;;2.70;95.07;99130.97;3133645;28;20053;-72
2024/01/04 03:06:22;;;;;;;44.40;22.10;;;;;;;2.63;95.07;99132.84;3145243;28;20482;-72
2024/01/04 03:07:54;;;;;;;39.35;21.27;;;;;;;2.65;95.31;99151.63;3145413;28;20055;-70
2024/01/04 03:09:27;;;;;;;43.83;21.65;;;;;;;2.65;95.19;99140.50;3145482;28;20055;-72
2024/01/04 03:10:58;;;;;;;38.15;19.67;;;;;;;2.60;95.24;99144.88;3145165;28;20048;-68
2024/01/04 03:12:29;;;;;;;38.17;19.50;;;;;;;2.58;95.28;99144.09;3144958;28;20540;-70
2024/01/04 03:14:00;;;;;;;36.10;19.70;;;;;;;2.40;95.32;99117.09;3144878;28;20048;-71
2024/01/04 03:15:32;;;;;;;38.22;20.05;;;;;;;2.45;95.41;99138.38;3145083;28;20048;-71
2024/01/04 03:17:03;;;;;;;39.10;20.08;;;;;;;2.47;95.47;99136.63;3144599;28;20052;-70
2024/01/04 03:18:35;;;;;;;35.25;18.63;;;;;;;2.45;95.38;99140.94;3144764;28;20056;-74
2024/01/04 03:20:07;;;;;;;40.05;20.92;;;;;;;2.43;95.44;99138.44;3145015;28;20056;-74
2024/01/04 03:21:39;;;;;;;34.25;19.48;;;;;;;2.41;95.37;99122.19;3144911;28;20059;-72
2024/01/04 03:23:09;;;;;;;36.75;19.58;;;;;;;2.40;95.45;99117.94;3145016;28;20040;-74
2024/01/04 03:24:43;;;;;;;41.50;20.48;;;;;;;2.38;95.49;99099.13;3144605;28;20051;-74
2024/01/04 03:26:13;;;;;;;37.53;19.80;;;;;;;2.40;95.35;99096.56;3144645;28;20044;-72
2024/01/04 03:27:45;;;;;;;36.13;18.77;;;;;;;2.32;95.45;99091.56;3145075;28;20095;-72
2024/01/04 03:29:16;;;;;;;37.58;19.02;;;;;;;2.37;95.40;99094.88;3144384;28;20045;-73
2024/01/04 03:30:48;;;;;;;36.65;20.08;;;;;;;2.42;95.46;99100.75;3144720;28;20070;-74
2024/01/04 03:32:19;;;;;;;34.67;18.65;;;;;;;2.44;95.33;99104.13;3144739;28;20052;-73
2024/01/04 03:33:51;;;;;;;39.00;21.42;;;;;;;2.46;95.30;99099.81;3145279;28;20045;-73
2024/01/04 03:35:22;;;;;;;36.88;19.42;;;;;;;2.45;95.12;99095.53;3138257;28;20433;-74
2024/01/04 03:36:54;;;;;;;37.83;20.05;;;;;;;2.50;95.18;99098.00;3144810;28;20170;-72
2024/01/04 03:38:25;;;;;;;41.42;19.85;;;;;;;2.50;94.95;99111.69;3145058;28;20109;-73
2024/01/04 03:39:58;;;;;;;40.30;20.13;;;;;;;2.54;94.89;99121.91;3144827;28;20060;-73
2024/01/04 03:41:29;;;;;;;32.47;18.83;;;;;;;2.52;94.89;99124.53;3144898;28;20071;-73
2024/01/04 03:43:01;;;;;;;38.05;20.08;;;;;;;2.54;94.72;99129.63;3144646;28;20501;-72
2024/01/04 03:44:33;;;;;;;38.55;19.90;;;;;;;2.47;94.76;99104.06;3144739;28;20059;-73
2024/01/04 03:46:05;;;;;;;35.33;18.33;;;;;;;2.52;94.74;99106.53;3144656;28;20105;-73
2024/01/04 03:47:36;;;;;;;36.53;19.30;;;;;;;2.51;94.37;99107.41;3144580;28;20060;-73
2024/01/04 03:49:07;;;;;;;34.00;18.10;;;;;;;2.48;94.35;99118.63;3144872;28;20052;-72
2024/01/04 03:50:39;;;;;;;37.22;18.80;;;;;;;2.09;94.34;99063.00;3144599;28;20068;-72
2024/01/04 03:52:10;;;;;;;35.17;18.48;;;;;;;2.46;94.41;99124.66;3144263;28;20063;-71
2024/01/04 03:53:42;;;;;;;35.58;18.42;;;;;;;2.46;94.42;99114.41;3139472;28;20055;-70
2024/01/04 03:55:15;;;;;;;31.02;17.75;;;;;;;2.48;94.38;99099.75;3139587;28;20086;-70
2024/01/04 03:56:47;;;;;;;33.10;17.48;;;;;;;2.47;94.39;99106.63;3139456;28;20048;-70
2024/01/04 03:58:18;;;;;;;34.22;18.70;;;;;;;2.49;94.30;99117.72;3139266;28;20159;-69
2024/01/04 03:59:50;;;;;;;31.70;18.30;;;;;;;2.50;94.25;99106.56;3139298;28;20557;-72
2024/01/04 04:01:21;;;;;;;32.47;18.42;;;;;;;2.46;94.10;99092.09;3139335;28;20048;-72
2024/01/04 04:02:52;;;;;;;39.60;19.75;;;;;;;2.52;94.01;99113.41;3139286;28;20586;-72
2024/01/04 04:04:25;;;;;;;36.13;18.85;;;;;;;2.52;93.99;99101.41;3139104;28;20059;-72
2024/01/04 04:05:57;;;;;;;33.30;17.98;;;;;;;2.43;93.99;99081.91;3139337;28;20087;-71
2024/01/04 04:07:29;;;;;;;29.45;17.45;;;;;;;2.51;93.85;99089.41;3139262;28;20064;-71
2024/01/04 04:09:00;;;;;;;30.98;17.55;;;;;;;2.52;93.85;99100.56;3139094;28;20067;-72
2024/01/04 04:10:33;;;;;;;35.28;17.23;;;;;;;2.50;93.82;99090.28;3139092;28;20613;-71
2024/01/04 04:12:05;;;;;;;36.30;18.05;;;;;;;2.56;93.83;99097.03;3138805;28;20433;-73
2024/01/04 04:13:36;;;;;;;38.17;19.63;;;;;;;2.55;93.73;99090.19;3139280;28;20109;-72
2024/01/04 04:15:09;;;;;;;33.83;19.05;;;;;;;1.78;93.45;98964.41;3139150;28;20076;-72
2024/01/04 04:16:41;;;;;;;33.10;18.58;;;;;;;2.52;93.52;99067.97;3139185;28;20164;-71
2024/01/04 04:18:12;;;;;;;32.00;17.83;;;;;;;2.53;93.56;99068.81;3139420;28;20049;-76
2024/01/04 04:19:43;;;;;;;33.90;18.00;;;;;;;2.52;93.58;99082.56;3139534;28;20055;-73
2024/01/04 04:21:22;;;;;;;36.55;19.38;;;;;;;2.53;93.50;99079.09;3139130;28;20076;-74
2024/01/04 04:22:53;;;;;;;33.55;18.70;;;;;;;2.55;93.50;99067.06;3139113;28;20048;-74
2024/01/04 04:24:25;;;;;;;35.17;19.40;;;;;;;2.57;93.66;99066.13;3139433;28;20639;-76
2024/01/04 04:25:57;;;;;;;35.05;19.02;;;;;;;2.59;93.53;99066.94;3139269;28;20052;-71
2024/01/04 04:27:29;;;;;;;32.17;17.63;;;;;;;2.61;93.41;99066.91;3138976;28;20048;-72
2024/01/04 04:28:59;;;;;;;33.60;18.35;;;;;;;2.58;93.38;99054.97;3138924;28;20560;-75
2024/01/04 04:30:31;;;;;;;35.03;17.15;;;;;;;2.60;93.25;99049.78;3139182;28;20052;-74
2024/01/04 04:32:02;;;;;;;35.17;17.90;;;;;;;2.66;93.33;99052.19;3126919;28;20621;-72
2024/01/04 04:33:34;;;;;;;32.13;17.30;;;;;;;2.68;93.23;99053.84;3134538;28;20049;-73
2024/01/04 04:35:05;;;;;;;35.50;18.42;;;;;;;2.68;93.08;99048.72;3132281;28;20110;-72
2024/01/04 04:36:40;;;;;;;32.28;17.70;;;;;;;2.68;93.03;99046.13;3136359;28;20068;-75
2024/01/04 04:38:10;;;;;;;33.22;18.55;;;;;;;2.63;93.03;99029.16;3127075;28;20065;-75
2024/01/04 04:39:42;;;;;;;32.85;17.70;;;;;;;2.63;93.03;99047.13;3135741;28;20083;-76
2024/01/04 04:41:15;;;;;;;31.27;18.13;;;;;;;2.62;92.97;99048.88;3139354;28;20055;-76
2024/01/04 04:42:46;;;;;;;40.30;20.33;;;;;;;2.58;93.04;99051.56;3139116;28;20057;-77
2024/01/04 04:44:17;;;;;;;36.75;19.73;;;;;;;2.63;93.09;99060.00;3138729;28;20053;-77
2024/01/04 04:45:49;;;;;;;38.50;20.33;;;;;;;2.64;93.04;99052.25;3133006;28;20052;-72
2024/01/04 04:47:26;;;;;;;36.35;19.23;;;;;;;2.65;92.87;99053.94;3146094;28;20048;-69
2024/01/04 04:48:58;;;;;;;33.08;18.38;;;;;;;2.61;92.87;99056.63;3139280;28;20052;-69
2024/01/04 04:50:30;;;;;;;34.55;19.92;;;;;;;2.66;92.86;99071.06;3139354;28;20141;-69
2024/01/04 04:52:02;;;;;;;35.75;19.88;;;;;;;2.67;92.72;99064.19;3139539;28;20113;-70
2024/01/04 04:53:33;;;;;;;41.08;20.58;;;;;;;2.65;92.65;99074.50;3139381;28;20141;-70
2024/01/04 04:55:05;;;;;;;38.05;20.25;;;;;;;2.65;92.76;99060.81;3139428;28;20453;-70
2024/01/04 04:56:37;;;;;;;32.60;19.55;;;;;;;2.67;92.69;99079.63;3139223;28;20253;-70
2024/01/04 04:58:09;;;;;;;33.33;19.52;;;;;;;2.69;92.74;99088.13;3139434;28;20049;-70
2024/01/04 04:59:40;;;;;;;35.97;19.73;;;;;;;2.70;92.73;99089.81;3136397;28;20056;-70
2024/01/04 05:01:13;;;;;;;34.35;19.17;;;;;;;1.98;92.83;98976.78;3139020;28;20288;-69
2024/01/04 05:02:44;;;;;;;37.88;19.48;;;;;;;2.64;92.62;99075.38;3139271;28;20680;-69
2024/01/04 05:04:16;;;;;;;34.90;18.90;;;;;;;2.67;92.56;99082.19;3139053;28;20079;-70
2024/01/04 05:05:47;;;;;;;35.88;18.33;;;;;;;2.73;92.44;99110.31;3138574;28;20057;-73
2024/01/04 05:07:18;;;;;;;35.20;19.08;;;;;;;2.73;92.50;99112.88;3138668;28;20040;-68
2024/01/04 05:08:49;;;;;;;35.13;18.20;;;;;;;2.71;92.30;99096.66;3139148;28;20052;-67
2024/01/04 05:10:21;;;;;;;35.17;19.15;;;;;;;2.74;92.39;99101.72;3138738;28;20117;-72
2024/01/04 05:11:53;;;;;;;34.40;18.92;;;;;;;2.74;92.34;99105.13;3139354;28;20052;-71
2024/01/04 05:13:25;;;;;;;36.28;18.88;;;;;;;2.74;92.45;99106.84;3139464;28;20111;-72
2024/01/04 05:14:56;;;;;;;32.17;17.92;;;;;;;2.74;92.36;99099.97;3138853;28;20521;-70
2024/01/04 05:16:28;;;;;;;33.35;18.02;;;;;;;2.74;92.49;99099.97;3139171;28;20063;-77
2024/01/04 05:17:59;;;;;;;32.80;17.70;;;;;;;2.74;92.41;99097.41;3139344;28;20056;-76
2024/01/04 05:19:30;;;;;;;31.88;17.60;;;;;;;2.59;92.31;99078.94;3139318;28;20116;-77
2024/01/04 05:21:02;;;;;;;37.13;20.00;;;;;;;2.70;92.39;99095.81;3138919;28;20063;-73
2024/01/04 05:22:33;;;;;;;36.35;20.65;;;;;;;2.76;92.31;99104.25;3139037;28;20056;-73
2024/01/04 05:24:05;;;;;;;70.85;34.58;;;;;;;2.77;92.34;99088.78;3139185;28;20122;-72
2024/01/04 05:25:36;;;;;;;77.40;36.08;;;;;;;2.78;92.25;99087.03;3141779;28;20159;-74
2024/01/04 05:27:10;;;;;;;52.17;28.73;;;;;;;2.86;92.24;99098.00;3141689;28;20148;-70
2024/01/04 05:28:41;;;;;;;92.63;41.22;;;;;;;2.89;92.08;99098.75;3136273;28;20065;-73
2024/01/04 05:30:13;;;;;;;38.58;19.92;;;;;;;2.92;92.10;99092.69;3141133;28;20113;-70
2024/01/04 05:31:43;;;;;;;31.20;17.08;;;;;;;2.92;91.88;99093.53;3141014;28;20063;-73
2024/01/04 05:33:15;;;;;;;33.05;17.85;;;;;;;2.87;91.82;99085.13;3132487;28;20060;-74
2024/01/04 05:34:46;;;;;;;32.03;17.10;;;;;;;2.92;91.56;99101.25;3141244;28;20048;-80
2024/01/04 05:36:18;;;;;;;32.35;16.95;;;;;;;2.90;91.68;99105.59;3141071;28;20127;-73
2024/01/04 05:37:50;;;;;;;34.08;18.30;;;;;;;2.91;91.53;99116.72;3141132;28;20048;-73
2024/01/04 05:39:21;;;;;;;30.73;16.65;;;;;;;2.86;91.48;99114.25;3141114;28;20056;-71
2024/01/04 05:40:52;;;;;;;26.75;14.77;;;;;;;2.88;91.70;99120.22;3141101;28;20149;-71
2024/01/04 05:42:25;;;;;;;29.95;16.10;;;;;;;2.72;91.46;99088.03;3140742;28;20589;-71
2024/01/04 05:43:56;;;;;;;26.88;15.88;;;;;;;2.79;91.64;99107.59;3141125;28;20151;-72
2024/01/04 05:45:27;;;;;;;34.65;16.08;;;;;;;2.86;91.49;99113.41;3140802;28;20068;-73
2024/01/04 05:46:59;;;;;;;29.92;15.95;;;;;;;2.86;91.49;99103.13;3140763;28;20044;-69
2024/01/04 05:48:30;;;;;;;27.33;15.65;;;;;;;2.83;91.34;99098.06;3140865;28;20461;-66
2024/01/04 05:50:03;;;;;;;26.90;15.02;;;;;;;2.82;91.20;99093.81;3139369;28;20052;-71
2024/01/04 05:51:34;;;;;;;27.80;14.68;;;;;;;2.84;91.15;99099.75;3135914;28;20048;-68
2024/01/04 05:53:08;;;;;;;93.88;43.00;;;;;;;2.86;91.19;99103.97;3138305;28;20140;-71
2024/01/04 05:54:38;;;;;;;;;;;;;;;2.67;91.15;99085.59;3132953;28;20091;-70
2024/01/04 05:56:12;;;;;;;154.88;66.35;;;;;;;2.78;91.26;99100.78;3141002;28;20362;-69
2024/01/04 05:57:46;;;;;;;101.93;48.65;;;;;;;2.89;91.24;99114.19;3136220;28;21066;-70
2024/01/04 05:59:17;;;;;;;135.48;61.10;;;;;;;2.93;91.12;99113.25;3139346;28;20159;-71
2024/01/04 06:00:49;;;;;;;153.30;70.68;;;;;;;2.96;90.77;99110.59;3140613;28;20048;-73
2024/01/04 06:02:20;;;;;;;50.00;26.88;;;;;;;2.95;90.53;99103.75;3144294;28;20052;-73
2024/01/04 06:03:52;;;;;;;30.17;17.25;;;;;;;3.00;90.46;99110.50;3140764;28;20048;-74
2024/01/04 06:05:23;;;;;;;30.27;17.15;;;;;;;3.01;90.25;99117.34;3138438;28;20153;-74
2024/01/04 06:06:55;;;;;;;29.70;16.20;;;;;;;2.95;90.18;99116.59;3140877;28;20048;-73
2024/01/04 06:08:29;;;;;;;29.80;15.90;;;;;;;2.63;90.28;99053.16;3140807;28;20083;-75
2024/01/04 06:10:01;;;;;;;33.70;17.25;;;;;;;2.89;90.29;99103.06;3140536;28;20117;-75
2024/01/04 06:11:32;;;;;;;26.80;14.95;;;;;;;2.96;90.30;99115.72;3140774;28;20528;-75
2024/01/04 06:13:07;;;;;;;27.98;16.02;;;;;;;3.00;90.16;99115.66;3140757;28;20048;-75
2024/01/04 06:14:37;;;;;;;27.90;15.25;;;;;;;3.00;90.27;99106.22;3140422;28;20052;-74
2024/01/04 06:16:10;;;;;;;30.55;16.05;;;;;;;3.02;90.24;99122.47;3140303;28;20738;-74
2024/01/04 06:17:41;;;;;;;30.40;16.13;;;;;;;3.05;90.20;99124.94;3141126;28;20136;-74
2024/01/04 06:19:13;;;;;;;29.75;16.77;;;;;;;3.07;90.38;99120.59;3140768;28;20621;-72
2024/01/04 06:20:44;;;;;;;31.05;16.95;;;;;;;3.17;90.29;99136.66;3140276;28;20110;-72
2024/01/04 06:22:16;;;;;;;34.22;17.60;;;;;;;3.23;90.36;99131.34;3128239;28;20068;-70
2024/01/04 06:23:47;;;;;;;29.48;16.15;;;;;;;3.30;90.29;99134.59;3140146;28;20056;-69
2024/01/04 06:25:19;;;;;;;30.08;17.50;;;;;;;3.38;90.26;99130.94;3140709;28;20052;-68
2024/01/04 06:26:51;;;;;;;31.30;17.23;;;;;;;3.47;90.33;99129.00;3140409;28;20060;-70
2024/01/04 06:28:25;;;;;;;32.38;17.95;;;;;;;3.54;90.26;99115.91;3140064;28;20044;-69
2024/01/04 06:29:56;;;;;;;33.55;17.42;;;;;;;3.62;90.24;99115.72;3140241;28;20055;-69
2024/01/04 06:31:28;;;;;;;30.38;17.90;;;;;;;3.70;90.36;99120.63;3140600;28;20056;-70
2024/01/04 06:32:59;;;;;;;35.47;19.85;;;;;;;3.74;90.37;99111.94;3140457;28;20106;-72
2024/01/04 06:34:31;;;;;;;40.38;20.23;;;;;;;3.80;90.22;99124.66;3140358;28;20056;-71
2024/01/04 06:36:02;;;;;;;40.20;20.30;;;;;;;3.79;90.20;99134.13;3139879;28;20052;-68
2024/01/04 06:37:34;;;;;;;48.67;23.33;;;;;;;3.83;90.24;99125.41;3128485;28;20052;-68
2024/01/04 06:39:05;;;;;;;41.97;21.35;;;;;;;3.90;90.45;99120.06;3140009;28;20106;-67
2024/01/04 06:40:39;;;;;;;45.35;21.48;;;;;;;3.59;90.40;99054.00;3140206;28;20056;-67
2024/01/04 06:42:10;;;;;;;44.10;21.58;;;;;;;4.07;90.35;99102.38;3138656;28;20056;-69
2024/01/04 06:43:43;;;;;;;39.47;24.75;;;;;;;4.20;90.21;99108.00;3137178;28;20516;-66
2024/01/04 06:45:14;;;;;;;41.33;23.55;;;;;;;4.29;90.07;99106.03;3140000;28;20079;-65
2024/01/04 06:46:46;;;;;;;48.95;27.10;;;;;;;4.34;90.01;99093.81;3135027;28;20076;-69
2024/01/04 06:48:18;;;;;;;44.58;22.40;;;;;;;4.52;89.62;99096.72;3140113;28;20117;-69
2024/01/04 06:49:50;;;;;;;38.92;20.48;;;;;;;4.55;89.40;99087.16;3140356;28;20814;-69
2024/01/04 06:51:21;;;;;;;40.97;22.38;;;;;;;4.71;88.96;99089.25;3139965;28;20131;-71
2024/01/04 06:52:53;;;;;;;40.30;22.10;;;;;;;4.68;88.65;99074.69;3144140;28;20044;-72
2024/01/04 06:54:25;;;;;;;36.78;21.33;;;;;;;4.79;88.29;99100.13;3140283;28;20068;-70
2024/01/04 06:55:57;;;;;;;37.17;21.60;;;;;;;4.77;87.91;99100.19;3140463;28;20056;-68
2024/01/04 06:57:27;;;;;;;44.85;22.20;;;;;;;4.75;87.85;99104.53;3140209;28;20052;-72
2024/01/04 06:59:01;;;;;;;40.60;21.65;;;;;;;4.80;87.96;99107.00;3138247;28;20048;-70
2024/01/04 07:00:31;;;;;;;;;;;;;;;4.74;88.07;99107.19;3137521;28;20045;-72
2024/01/04 07:02:04;;;;;;;36.05;19.40;;;;;;;4.80;87.89;99109.56;3140054;28;19931;-71
2024/01/04 07:03:36;;;;;;;35.60;20.33;;;;;;;4.87;87.80;99107.63;3140101;28;20281;-71
2024/01/04 07:05:09;;;;;;;37.03;20.38;;;;;;;4.85;87.63;99093.94;3140609;28;20082;-73
2024/01/04 07:06:41;;;;;;;39.17;20.00;;;;;;;5.00;87.39;99108.91;3139862;28;20153;-72
2024/01/04 07:08:12;;;;;;;37.90;21.30;;;;;;;5.07;87.36;99102.66;3139607;28;20052;-72